Brive-Souillac

LFSL · Corrèze, Nouvelle-Aquitaine, 法国

使用的METAR站距离机场76 km。
罗盘
风向 的 风向 250° Brive-Souillac 11/29
风: 13 kt, 4 beaufort

9 kt

9 kt
改变
0 ft 1.000 2.000 3.000 4.000 5.000
Cloud Cloud
FEW 700
Cloud Cloud Cloud Cloud
SCT 1.300
Cloud Cloud Cloud Cloud Cloud Cloud
BKN 1.800
N/A
METAR LFCR 022300Z AUTO 25013KT 9000 +RA FEW007/// SCT013/// BKN018/// //////TCU 05/04 Q0996 BECMG 3000 -RASN OVC004

METAR Brive-Souillac - LFSL/BVE

Brive-Souillac是,法国中的中型机场。 该机场位于纬度45,04010和经度1,48438。 该机场有一条跑道: 11/29. 本场的ICAO机场代码为LFSL。 该机场的IATA代码为BVE。 机场在Bordeaux FIR中。

该航空气象观测是针对Rodez-Marcillac Airport在2024年3月3日 00:00, 当地时间进行的。

机场观察

风向为250°,速度为13 kt。

可见度为9 km。

有几云在700 ft的高度, 疏云,零星散落的云朵在1.300 ft的高度, 碎云在1.800 ft的高度 和 。 破损或更高的上限为1.800 ft。

当前天气为倾盆大 雨。 温度为5 °C,阵风为-1 °C。 露点为4 °C,相对湿度为93%。 海平面上的气压为996 hPa (QNH)。

发展趋势

  • 变得

    可变方向的风很小或没有。 可见性变为3 km。 重大天气:光 雨 雪。 乌云密布在400 ft的高度.

白天

今天,太阳从07:29升起,在18:43降落。 这适用于Brive-Souillac,世界夏令时可能有所不同。 当地时间与世界标准时间之间的时差为+1 小时。 当前,没有夏令时有效。

公司介绍

我们没有关于这个机场的公司信息。

体会

到Vliegles.nl去找飞行课程,跳伞和其他飞行体验。 浏览页面,了解Brive-Souillac附近所有可用的活动。 你也可以使用搜索功能来寻找你所在地附近的特定飞行课程、跳伞或其他飞行体验。

跑道

Id 标题 侧风 逆风 侧风 %
11/29 114°-294° 9 kt 9 kt 69 %

逆风成分最大的方向会被突出显示,并用于横风计算。 这并不一定意味着这个方向在使用。

乌云

700 ft FEW 几云
1.300 ft SCT 疏云,零星散落的云朵
1.800 ft BKN 碎云
0 ft
400 ft OVC 变得 乌云密布

温度 & 天气

天气 倾盆大 雨
温度 5 °C
露点 4 °C
相对湿度 93%
风寒 -1 °C
Kp-index 0 (0-9)

白天

日出
07:24 (6:56)
中午
13:02
日落
18:39

小工具

你想在你的网站上有一个关于Brive-Souillac的当前航空天气(METAR)的小部件吗?

显示HTML代码
?>